Manistique, MI

4:03 AM EST on February 01, 2015 (GMT -0500)
RAWS SENEY MI US | Change Station
CLOSE
Current Station
Personal Weather Station
Location: Germfask, MI
Elevation: 899 ft
Nearby Weather Stations

Elev 899 ft 46.24 °N, 85.94 °W | Updated 1 hour ago

Partly Cloudy
Partly Cloudy
7 °F
Feels Like -1 °F
N
4
Wind Variable Wind from NE
Gusts 10.0 mph

Today
High -- | Low -- °F
--% Chance of Precip.
Yesterday
High -- | Low -- °F
Precip. -- in
8:07 AM 5:50 PM
Waxing Gibbous, 94% visible
Pressure 30.35 in
Visibility 10.0 miles
Clouds Mostly Cloudy 2500 ft
Windchill -1 °F
Dew Point -1 °F
Humidity 70%
Rainfall 0.00 in
Snow Depth Not available.
UV 0 out of 12
Pollen .10 out of 12
Air Quality Not available.
Flu Activity Not available.
METAR KISQ 010855Z AUTO 01005KT 10SM BKN025 M14/M17 A3035 RMK AO2 T11371170

More Conditions Fewer Conditions

Pressure 30.35 in
Visibility 10.0 miles
Clouds Mostly Cloudy 2500 ft
Windchill -1 °F
Dew Point -1 °F
Humidity 70%
Rainfall 0.00 in
Snow Depth Not available.
UV 0 out of 12
Pollen .10 out of 12
Air Quality Not available.
Flu Activity Not available.
METAR KISQ 010855Z AUTO 01005KT 10SM BKN025 M14/M17 A3035 RMK AO2 T11371170

More Conditions Fewer Conditions

10-Day Weather Forecast

Almanac

Astronomy

Feb. 01, 2015 Rise Set
Actual Time
Civil Twilight
Nautical Twilight
Astronomical Twilight
Moon
Length of Visible Light
Length of Day
Tomorrow will be .
, % of the Moon is Illuminated

Today's Extremes

State Highs State Lows

Community

WunderPhotos

Upload Photos

1,792,338 photos uploaded!

WunderBlogs® & News

Nearby

Air Quality

  Air Quality AQ Index Pollutant
Not available.

Snow Depth

Station Depth Elevation

Earthquake Activity

City Distance Mag. Time & Date
Minimum magnitude displayed is 2.5.

Coastal Water Temperatures

Place Temperature

Nearby Weather Stations